Time;durP1;ratioP1;P1;durP2;ratioP2;P2;SDS_P1;SDS_P2;PMS_P1;PMS_P2;Temp;Humidity;BMP_temperature;BMP_pressure;BME280_temperature;BME280_humidity;BME280_pressure;Samples;Min_cycle;Max_cycle;Signal;HPM_P1;HPM_P2
2021/10/30 00:00:47;;;;;;;887.17;682.65;;;;;;;;;;5093474;28;20034;-80
2021/10/30 00:03:13;;;;;;;890.10;700.67;;;;;;;;;;5074589;28;20471;-80
2021/10/30 00:05:39;;;;;;;887.30;684.97;;;;;;;;;;5074787;28;20206;-80
2021/10/30 00:08:05;;;;;;;876.97;648.85;;;;;;;;;;5074518;28;20123;-80
2021/10/30 00:10:31;;;;;;;877.85;651.17;;;;;;;;;;5074733;28;20028;-80
2021/10/30 00:12:58;;;;;;;891.60;691.03;;;;;;;;;;5083307;28;20047;-80
2021/10/30 00:15:24;;;;;;;886.20;681.08;;;;;;;;;;5090512;28;20020;-80
2021/10/30 00:17:50;;;;;;;890.20;700.50;;;;;;;;;;5069704;28;20408;-80
2021/10/30 00:20:16;;;;;;;886.47;678.03;;;;;;;;;;5074395;28;20039;-80
2021/10/30 00:22:42;;;;;;;885.42;667.40;;;;;;;;;;5049437;28;20507;-80
2021/10/30 00:25:09;;;;;;;882.72;665.25;;;;;;;;;;5033227;28;20165;-80
2021/10/30 00:27:35;;;;;;;883.08;661.92;;;;;;;;;;5044369;28;20555;-80
2021/10/30 00:30:01;;;;;;;882.75;662.63;;;;;;;;;;5049650;28;20072;-80
2021/10/30 00:32:27;;;;;;;882.80;659.70;;;;;;;;;;5036971;28;20053;-80
2021/10/30 00:34:53;;;;;;;867.80;611.35;;;;;;;;;;5033360;28;20119;-80
2021/10/30 00:37:19;;;;;;;869.78;625.28;;;;;;;;;;5021125;28;20119;-80
2021/10/30 00:39:45;;;;;;;880.08;651.05;;;;;;;;;;5033345;28;20392;-80
2021/10/30 00:42:11;;;;;;;885.67;676.63;;;;;;;;;;5049454;28;20049;-79
2021/10/30 00:44:37;;;;;;;878.55;645.85;;;;;;;;;;5033376;28;20067;-80
2021/10/30 00:47:03;;;;;;;889.97;690.03;;;;;;;;;;5045855;28;20060;-80
2021/10/30 00:49:29;;;;;;;881.80;664.10;;;;;;;;;;5034512;28;20045;-80
2021/10/30 00:51:56;;;;;;;885.80;675.33;;;;;;;;;;5032958;28;20029;-80
2021/10/30 00:54:23;;;;;;;887.72;685.20;;;;;;;;;;5049923;28;20049;-80
2021/10/30 00:56:52;;;;;;;886.88;684.55;;;;;;;;;;5076551;28;20099;-80
2021/10/30 00:59:18;;;;;;;885.38;671.83;;;;;;;;;;5076741;28;20031;-80
2021/10/30 01:01:45;;;;;;;889.08;692.88;;;;;;;;;;5073684;28;20035;-79
2021/10/30 01:04:11;;;;;;;880.30;670.45;;;;;;;;;;5085708;28;20434;-80
2021/10/30 01:06:39;;;;;;;881.05;670.35;;;;;;;;;;5090751;28;20035;-80
2021/10/30 01:09:06;;;;;;;885.40;684.13;;;;;;;;;;5074545;28;20048;-80
2021/10/30 01:11:32;;;;;;;888.13;685.17;;;;;;;;;;5073990;28;20432;-81
2021/10/30 01:13:59;;;;;;;896.95;696.85;;;;;;;;;;5073293;28;20024;-80
2021/10/30 01:16:25;;;;;;;886.15;688.88;;;;;;;;;;5072884;28;20030;-79
2021/10/30 01:18:51;;;;;;;900.40;728.08;;;;;;;;;;5073863;28;20063;-80
2021/10/30 01:21:27;;;;;;;893.65;697.50;;;;;;;;;;5073436;28;20036;-80
2021/10/30 01:23:53;;;;;;;907.72;746.50;;;;;;;;;;5091242;28;20476;-80
2021/10/30 01:26:21;;;;;;;898.28;730.72;;;;;;;;;;5073786;28;20379;-80
2021/10/30 01:28:46;;;;;;;908.42;756.80;;;;;;;;;;5070384;28;20030;-80
2021/10/30 01:31:12;;;;;;;904.95;743.80;;;;;;;;;;5059325;28;20435;-80
2021/10/30 01:33:42;;;;;;;907.80;747.15;;;;;;;;;;5091540;28;20099;-80
2021/10/30 01:36:08;;;;;;;898.75;720.65;;;;;;;;;;5073376;28;20020;-80
2021/10/30 01:38:34;;;;;;;909.90;756.15;;;;;;;;;;5073456;28;20021;-80
2021/10/30 01:41:00;;;;;;;911.35;760.20;;;;;;;;;;5091947;28;20024;-80
2021/10/30 01:43:26;;;;;;;908.50;758.00;;;;;;;;;;5074471;28;20039;-80
2021/10/30 01:45:53;;;;;;;910.58;761.30;;;;;;;;;;5077970;28;20024;-80
2021/10/30 01:48:19;;;;;;;907.90;748.03;;;;;;;;;;5090662;28;20024;-80
2021/10/30 01:50:45;;;;;;;904.15;744.85;;;;;;;;;;5077244;28;20121;-80
2021/10/30 01:53:11;;;;;;;901.50;736.60;;;;;;;;;;5076961;28;20036;-80
2021/10/30 01:55:39;;;;;;;896.42;718.75;;;;;;;;;;5077278;28;20016;-80
2021/10/30 01:58:06;;;;;;;902.50;734.00;;;;;;;;;;5085790;28;20074;-80
2021/10/30 02:00:34;;;;;;;915.85;771.97;;;;;;;;;;5076923;28;20479;-80
2021/10/30 02:02:59;;;;;;;913.97;765.33;;;;;;;;;;5077315;28;20128;-80
2021/10/30 02:05:26;;;;;;;907.22;749.13;;;;;;;;;;5095367;28;20118;-80
2021/10/30 02:07:52;;;;;;;914.38;772.17;;;;;;;;;;5073280;28;20471;-80
2021/10/30 02:10:18;;;;;;;923.00;794.10;;;;;;;;;;5094748;28;20028;-80
2021/10/30 02:12:44;;;;;;;907.15;753.58;;;;;;;;;;5077173;28;20038;-80
2021/10/30 02:15:10;;;;;;;908.95;753.92;;;;;;;;;;5095348;28;20587;-79
2021/10/30 02:17:37;;;;;;;893.72;706.90;;;;;;;;;;5093924;28;20702;-79
2021/10/30 02:20:05;;;;;;;910.42;761.28;;;;;;;;;;5071092;28;20117;-79
2021/10/30 02:22:31;;;;;;;891.83;703.78;;;;;;;;;;5070335;28;20116;-80
2021/10/30 02:24:57;;;;;;;897.78;722.78;;;;;;;;;;5076714;28;20097;-79
2021/10/30 02:27:23;;;;;;;914.67;769.10;;;;;;;;;;5067852;28;20020;-80
2021/10/30 02:29:49;;;;;;;923.75;790.40;;;;;;;;;;5057248;28;20032;-79
2021/10/30 02:32:15;;;;;;;895.65;711.90;;;;;;;;;;5076244;28;20028;-81
2021/10/30 02:34:42;;;;;;;913.45;767.42;;;;;;;;;;5077082;28;20527;-80
2021/10/30 02:37:08;;;;;;;912.05;763.42;;;;;;;;;;5076834;28;20028;-79
2021/10/30 02:39:34;;;;;;;916.88;739.00;;;;;;;;;;5076977;28;20036;-81
2021/10/30 02:42:00;;;;;;;907.83;749.83;;;;;;;;;;5077025;28;20111;-80
2021/10/30 02:44:26;;;;;;;920.40;784.47;;;;;;;;;;5077206;28;20028;-78
2021/10/30 02:46:53;;;;;;;895.63;715.40;;;;;;;;;;5074224;28;20039;-79
2021/10/30 02:49:19;;;;;;;921.13;791.90;;;;;;;;;;5067287;28;20495;-79
2021/10/30 02:51:45;;;;;;;925.47;800.15;;;;;;;;;;5077157;28;20020;-79
2021/10/30 02:54:11;;;;;;;933.67;789.40;;;;;;;;;;5078069;28;20158;-79
2021/10/30 02:56:37;;;;;;;924.67;795.47;;;;;;;;;;5055775;28;20074;-79
2021/10/30 02:59:03;;;;;;;927.95;803.17;;;;;;;;;;5056198;28;20052;-79
2021/10/30 03:01:30;;;;;;;907.72;757.03;;;;;;;;;;5056436;28;20874;-79
2021/10/30 03:03:56;;;;;;;895.97;714.80;;;;;;;;;;5056602;28;20032;-79
2021/10/30 03:06:22;;;;;;;910.53;758.00;;;;;;;;;;5058111;28;20035;-81
2021/10/30 03:08:51;;;;;;;922.08;787.63;;;;;;;;;;5076552;28;20471;-80
2021/10/30 03:11:17;;;;;;;917.85;775.38;;;;;;;;;;5076812;28;20576;-80
2021/10/30 03:13:46;;;;;;;900.20;734.40;;;;;;;;;;5094358;28;20031;-80
2021/10/30 03:16:12;;;;;;;919.88;786.33;;;;;;;;;;5076562;28;20028;-79
2021/10/30 03:18:38;;;;;;;936.00;824.95;;;;;;;;;;5074362;28;20054;-79
2021/10/30 03:21:04;;;;;;;926.20;801.03;;;;;;;;;;5083989;28;20119;-78
2021/10/30 03:23:30;;;;;;;936.25;824.42;;;;;;;;;;5085671;28;20111;-80
2021/10/30 03:25:57;;;;;;;921.03;791.05;;;;;;;;;;5075313;28;20517;-80
2021/10/30 03:28:23;;;;;;;939.38;834.25;;;;;;;;;;5075429;28;20024;-79
2021/10/30 03:30:49;;;;;;;909.90;763.53;;;;;;;;;;5094046;28;20085;-80
2021/10/30 03:33:15;;;;;;;928.38;810.47;;;;;;;;;;5075141;28;20383;-81
2021/10/30 03:35:41;;;;;;;929.72;811.08;;;;;;;;;;5075907;28;20032;-80
2021/10/30 03:38:07;;;;;;;938.65;827.17;;;;;;;;;;5075644;28;20667;-81
2021/10/30 03:40:33;;;;;;;941.20;833.38;;;;;;;;;;5075395;28;20028;-80
2021/10/30 03:42:59;;;;;;;934.50;816.40;;;;;;;;;;5075879;28;20188;-79
2021/10/30 03:45:25;;;;;;;924.42;794.83;;;;;;;;;;5075663;28;20032;-79
2021/10/30 03:47:51;;;;;;;913.92;766.47;;;;;;;;;;5074185;28;20442;-82
2021/10/30 03:50:19;;;;;;;907.92;744.67;;;;;;;;;;5075690;28;20032;-78
2021/10/30 03:52:45;;;;;;;910.22;742.58;;;;;;;;;;5056554;28;20577;-79
2021/10/30 03:55:11;;;;;;;921.40;780.92;;;;;;;;;;5059908;28;20043;-80
2021/10/30 03:57:37;;;;;;;924.00;784.78;;;;;;;;;;5076801;28;20028;-80
2021/10/30 04:00:05;;;;;;;922.97;784.67;;;;;;;;;;5093574;28;20099;-78
2021/10/30 04:02:32;;;;;;;913.05;763.17;;;;;;;;;;5093823;28;20036;-80
2021/10/30 04:04:58;;;;;;;895.35;701.90;;;;;;;;;;5075353;28;20039;-75
2021/10/30 04:07:24;;;;;;;897.40;713.90;;;;;;;;;;5074382;28;20054;-79
2021/10/30 04:09:50;;;;;;;883.90;671.72;;;;;;;;;;5075505;28;20392;-79
2021/10/30 04:12:16;;;;;;;898.70;720.47;;;;;;;;;;5075317;28;20021;-77
2021/10/30 04:14:42;;;;;;;893.97;702.45;;;;;;;;;;5075121;28;20529;-81
2021/10/30 04:17:08;;;;;;;892.90;693.15;;;;;;;;;;5073610;28;20044;-78
2021/10/30 04:19:34;;;;;;;899.08;714.80;;;;;;;;;;5076565;28;20039;-81
2021/10/30 04:22:00;;;;;;;887.92;681.20;;;;;;;;;;5066288;28;20035;-79
2021/10/30 04:24:26;;;;;;;892.33;696.58;;;;;;;;;;5072238;28;20033;-81
2021/10/30 04:26:52;;;;;;;886.58;677.42;;;;;;;;;;5055045;28;20082;-75
2021/10/30 04:29:19;;;;;;;885.90;678.85;;;;;;;;;;5073268;28;20560;-80
2021/10/30 04:31:47;;;;;;;908.67;749.55;;;;;;;;;;5055040;28;20028;-79
2021/10/30 04:34:19;;;;;;;906.35;747.03;;;;;;;;;;5073327;28;20075;-80
2021/10/30 04:36:47;;;;;;;904.65;740.85;;;;;;;;;;5062340;28;20028;-79
2021/10/30 04:39:14;;;;;;;919.75;780.80;;;;;;;;;;5093493;28;20084;-79
2021/10/30 04:41:42;;;;;;;911.17;763.13;;;;;;;;;;5075310;28;20028;-79
2021/10/30 04:44:08;;;;;;;929.33;808.83;;;;;;;;;;5073651;28;20530;-79
2021/10/30 04:46:34;;;;;;;935.08;823.92;;;;;;;;;;5073359;28;20118;-78
2021/10/30 04:49:01;;;;;;;913.83;770.15;;;;;;;;;;5075032;28;20153;-77
2021/10/30 04:51:27;;;;;;;918.63;783.05;;;;;;;;;;5074731;28;20032;-81
2021/10/30 04:53:53;;;;;;;937.20;825.25;;;;;;;;;;5073769;28;20091;-78
2021/10/30 04:56:19;;;;;;;919.33;783.40;;;;;;;;;;5070189;28;20082;-79
2021/10/30 04:58:45;;;;;;;940.53;834.72;;;;;;;;;;5091125;28;20020;-80
2021/10/30 05:01:15;;;;;;;917.88;787.22;;;;;;;;;;5085752;28;20028;-81
2021/10/30 05:03:42;;;;;;;922.55;797.95;;;;;;;;;;5070725;28;20131;-79
2021/10/30 05:06:11;;;;;;;928.10;812.72;;;;;;;;;;5073190;28;20058;-77
2021/10/30 05:08:38;;;;;;;933.50;816.63;;;;;;;;;;5074532;28;20115;-79
2021/10/30 05:11:06;;;;;;;934.65;824.70;;;;;;;;;;5074736;28;20432;-80
2021/10/30 05:13:32;;;;;;;947.45;837.05;;;;;;;;;;5067866;28;20016;-78
2021/10/30 05:15:58;;;;;;;925.20;803.60;;;;;;;;;;5053869;28;20017;-79
2021/10/30 05:18:24;;;;;;;933.13;824.90;;;;;;;;;;5052299;28;20692;-80
2021/10/30 05:20:51;;;;;;;941.58;831.78;;;;;;;;;;5054324;28;20036;-79
2021/10/30 05:23:17;;;;;;;925.15;804.30;;;;;;;;;;5063146;28;20050;-78
2021/10/30 05:25:43;;;;;;;932.80;808.33;;;;;;;;;;5091781;28;20028;-80
2021/10/30 05:28:09;;;;;;;927.65;809.15;;;;;;;;;;5076006;28;20313;-80
2021/10/30 05:30:35;;;;;;;933.13;818.08;;;;;;;;;;5080001;28;20435;-79
2021/10/30 05:33:01;;;;;;;932.17;814.85;;;;;;;;;;5074881;28;20161;-80
2021/10/30 05:35:27;;;;;;;919.90;791.63;;;;;;;;;;5072305;28;20024;-78
2021/10/30 05:37:53;;;;;;;935.50;823.15;;;;;;;;;;5074070;28;20024;-79
2021/10/30 05:40:19;;;;;;;927.30;804.72;;;;;;;;;;5073995;28;20490;-79
2021/10/30 05:42:45;;;;;;;940.58;834.85;;;;;;;;;;5074578;28;20020;-79
2021/10/30 05:45:12;;;;;;;930.50;815.72;;;;;;;;;;5072359;28;20104;-79
2021/10/30 05:47:38;;;;;;;937.58;832.35;;;;;;;;;;5072975;28;20109;-79
2021/10/30 05:50:05;;;;;;;933.92;821.95;;;;;;;;;;5060276;28;20028;-78
2021/10/30 05:52:31;;;;;;;934.78;823.40;;;;;;;;;;5085491;28;20031;-78
2021/10/30 05:54:58;;;;;;;932.75;815.83;;;;;;;;;;5089236;28;20070;-80
2021/10/30 05:57:25;;;;;;;933.30;815.00;;;;;;;;;;5073842;28;20054;-80
2021/10/30 05:59:51;;;;;;;932.83;815.10;;;;;;;;;;5084234;28;20439;-81
2021/10/30 06:02:17;;;;;;;922.00;792.55;;;;;;;;;;5053911;28;20040;-78
2021/10/30 06:04:43;;;;;;;934.42;821.58;;;;;;;;;;5071636;28;20029;-80
2021/10/30 06:07:10;;;;;;;922.55;796.13;;;;;;;;;;5070054;28;20373;-82
2021/10/30 06:09:36;;;;;;;942.90;835.05;;;;;;;;;;5081581;28;20032;-83
2021/10/30 06:12:02;;;;;;;920.50;789.03;;;;;;;;;;5085112;28;20028;-82
2021/10/30 06:14:28;;;;;;;953.17;848.22;;;;;;;;;;5091918;28;20020;-81
2021/10/30 06:16:54;;;;;;;937.40;824.33;;;;;;;;;;5090208;28;20028;-81
2021/10/30 06:19:20;;;;;;;930.22;819.58;;;;;;;;;;5073559;28;20104;-82
2021/10/30 06:21:46;;;;;;;926.83;807.20;;;;;;;;;;5073630;28;20028;-77
2021/10/30 06:24:12;;;;;;;919.72;793.60;;;;;;;;;;5091821;28;20063;-81
2021/10/30 06:26:38;;;;;;;927.13;811.85;;;;;;;;;;5073627;28;20039;-80
2021/10/30 06:29:04;;;;;;;926.45;805.30;;;;;;;;;;5090834;28;20036;-81
2021/10/30 06:31:31;;;;;;;925.38;807.92;;;;;;;;;;5092446;28;20059;-79
2021/10/30 06:33:57;;;;;;;918.17;791.67;;;;;;;;;;5077572;28;20028;-81
2021/10/30 06:36:23;;;;;;;921.80;766.70;;;;;;;;;;5077017;28;20055;-82
2021/10/30 06:38:52;;;;;;;928.22;814.03;;;;;;;;;;5095071;28;20051;-80
2021/10/30 06:41:18;;;;;;;928.00;807.22;;;;;;;;;;5093320;28;20106;-80
2021/10/30 06:43:44;;;;;;;924.03;795.92;;;;;;;;;;5093028;28;20559;-79
2021/10/30 06:46:10;;;;;;;937.10;827.50;;;;;;;;;;5077150;28;20387;-81
2021/10/30 06:48:37;;;;;;;933.15;824.17;;;;;;;;;;5091444;28;20031;-80
2021/10/30 06:51:04;;;;;;;910.35;767.30;;;;;;;;;;5076605;28;20020;-80
2021/10/30 06:53:35;;;;;;;910.10;762.15;;;;;;;;;;5076771;28;20051;-79
2021/10/30 06:56:01;;;;;;;930.13;807.42;;;;;;;;;;5076034;28;20031;-80
2021/10/30 06:58:28;;;;;;;931.78;818.20;;;;;;;;;;5094549;28;20070;-81
2021/10/30 07:00:55;;;;;;;903.13;741.20;;;;;;;;;;5077092;28;20468;-80
2021/10/30 07:03:21;;;;;;;927.55;807.00;;;;;;;;;;5076702;28;20118;-80
2021/10/30 07:05:47;;;;;;;914.10;778.65;;;;;;;;;;5076569;28;20032;-77
2021/10/30 07:08:13;;;;;;;914.72;775.88;;;;;;;;;;5076417;28;20036;-80
2021/10/30 07:10:40;;;;;;;920.35;787.03;;;;;;;;;;5093468;28;20468;-79
2021/10/30 07:13:06;;;;;;;919.30;785.38;;;;;;;;;;5077430;28;20710;-80
2021/10/30 07:15:32;;;;;;;921.38;791.35;;;;;;;;;;5080417;28;20716;-78
2021/10/30 07:17:58;;;;;;;894.10;703.83;;;;;;;;;;5054860;28;20054;-78
2021/10/30 07:20:36;;;;;;;891.47;709.65;;;;;;;;;;5066607;28;20115;-78
2021/10/30 07:23:02;;;;;;;906.63;752.00;;;;;;;;;;5075468;28;20036;-80
2021/10/30 07:25:28;;;;;;;905.17;743.45;;;;;;;;;;5090576;28;20034;-80
2021/10/30 07:27:54;;;;;;;929.53;808.30;;;;;;;;;;5075229;28;20020;-80
2021/10/30 07:30:20;;;;;;;923.05;788.72;;;;;;;;;;5074924;28;20028;-78
2021/10/30 07:32:53;;;;;;;903.25;741.90;;;;;;;;;;5074899;28;20034;-80
2021/10/30 07:35:20;;;;;;;915.42;772.10;;;;;;;;;;5075113;28;20076;-82
2021/10/30 07:37:46;;;;;;;907.58;758.45;;;;;;;;;;5076045;28;20020;-78
2021/10/30 07:40:13;;;;;;;916.80;777.53;;;;;;;;;;5075373;28;20422;-79
2021/10/30 07:42:39;;;;;;;903.67;742.25;;;;;;;;;;5076286;28;20710;-80
2021/10/30 07:45:05;;;;;;;911.80;761.33;;;;;;;;;;5091281;28;20106;-81
2021/10/30 07:47:31;;;;;;;893.25;712.92;;;;;;;;;;5074238;28;20035;-79
2021/10/30 07:50:00;;;;;;;893.70;708.75;;;;;;;;;;5074354;28;20097;-80
2021/10/30 07:52:28;;;;;;;901.85;731.35;;;;;;;;;;5092208;28;20032;-78
2021/10/30 07:54:53;;;;;;;903.08;735.58;;;;;;;;;;5077716;28;20035;-78
2021/10/30 07:57:19;;;;;;;912.80;764.38;;;;;;;;;;5074171;28;20036;-79
2021/10/30 07:59:45;;;;;;;921.63;783.83;;;;;;;;;;5074561;28;20024;-78
2021/10/30 08:02:12;;;;;;;925.58;796.22;;;;;;;;;;5086422;28;20059;-79
2021/10/30 08:04:38;;;;;;;894.75;717.80;;;;;;;;;;5093173;28;20047;-79
2021/10/30 08:07:05;;;;;;;918.00;781.67;;;;;;;;;;5087404;28;20495;-77
2021/10/30 08:09:31;;;;;;;915.42;772.63;;;;;;;;;;5068981;28;20047;-79
2021/10/30 08:11:58;;;;;;;919.13;774.95;;;;;;;;;;5081214;28;20040;-80
2021/10/30 08:14:24;;;;;;;914.58;765.47;;;;;;;;;;5061911;28;20047;-80
2021/10/30 08:16:51;;;;;;;921.00;789.65;;;;;;;;;;5062889;28;20545;-79
2021/10/30 08:19:17;;;;;;;904.35;741.55;;;;;;;;;;5066967;28;20024;-77
2021/10/30 08:21:43;;;;;;;906.10;738.70;;;;;;;;;;5062530;28;20101;-77
2021/10/30 08:24:09;;;;;;;918.47;775.30;;;;;;;;;;5064838;28;20051;-78
2021/10/30 08:26:35;;;;;;;897.33;721.45;;;;;;;;;;5064583;28;20036;-78
2021/10/30 08:29:02;;;;;;;922.83;788.95;;;;;;;;;;5086246;28;20026;-77
2021/10/30 08:31:31;;;;;;;919.22;780.60;;;;;;;;;;5065678;28;20491;-80
2021/10/30 08:33:57;;;;;;;924.47;790.72;;;;;;;;;;5067249;28;20458;-79
2021/10/30 08:36:25;;;;;;;924.80;791.10;;;;;;;;;;5085032;28;20027;-79
2021/10/30 08:38:51;;;;;;;924.70;793.20;;;;;;;;;;5071310;28;20020;-77
2021/10/30 08:41:22;;;;;;;915.58;772.70;;;;;;;;;;5084043;28;20024;-77
2021/10/30 08:43:49;;;;;;;910.25;760.17;;;;;;;;;;5066907;28;20020;-76
2021/10/30 08:46:15;;;;;;;912.50;766.60;;;;;;;;;;5071675;28;20043;-78
2021/10/30 08:48:41;;;;;;;918.80;779.40;;;;;;;;;;5083230;28;20120;-76
2021/10/30 08:51:07;;;;;;;909.00;747.50;;;;;;;;;;5084225;28;20052;-77
2021/10/30 08:53:33;;;;;;;898.83;724.30;;;;;;;;;;5065796;28;20039;-79
2021/10/30 08:56:03;;;;;;;923.33;796.97;;;;;;;;;;5082474;28;20099;-77
2021/10/30 08:58:29;;;;;;;930.03;792.58;;;;;;;;;;5064938;28;20050;-77
2021/10/30 09:00:57;;;;;;;907.97;754.85;;;;;;;;;;5084549;28;20451;-76
2021/10/30 09:03:23;;;;;;;916.00;772.88;;;;;;;;;;5065489;28;20035;-75
2021/10/30 09:05:51;;;;;;;907.15;753.10;;;;;;;;;;5069701;28;20043;-78
2021/10/30 09:08:17;;;;;;;906.50;743.00;;;;;;;;;;5066014;28;20047;-76
2021/10/30 09:10:51;;;;;;;891.10;700.60;;;;;;;;;;5086509;28;20028;-77
2021/10/30 09:13:19;;;;;;;916.60;776.97;;;;;;;;;;5088631;28;20028;-76
2021/10/30 09:15:47;;;;;;;896.47;721.25;;;;;;;;;;5085042;28;20035;-79
2021/10/30 09:18:32;;;;;;;921.05;788.67;;;;;;;;;;5060319;28;20050;-78
2021/10/30 09:21:07;;;;;;;910.30;756.65;;;;;;;;;;5085043;28;20016;-77
2021/10/30 09:23:42;;;;;;;913.83;769.10;;;;;;;;;;5085981;28;20388;-78
2021/10/30 09:26:16;;;;;;;913.78;767.78;;;;;;;;;;5085023;28;20043;-77
2021/10/30 09:28:47;;;;;;;932.70;816.67;;;;;;;;;;5054097;28;20090;-77
2021/10/30 09:31:13;;;;;;;925.72;804.67;;;;;;;;;;5058512;28;20069;-77
2021/10/30 09:33:49;;;;;;;906.85;758.47;;;;;;;;;;5072727;28;20042;-76
2021/10/30 09:36:15;;;;;;;909.35;752.95;;;;;;;;;;5075775;28;20130;-76
2021/10/30 09:38:42;;;;;;;918.72;783.80;;;;;;;;;;5085867;28;20020;-77
2021/10/30 09:41:21;;;;;;;925.72;805.15;;;;;;;;;;5068053;28;20032;-77
2021/10/30 09:44:07;;;;;;;903.60;741.47;;;;;;;;;;5070030;28;20628;-76
2021/10/30 09:46:45;;;;;;;907.47;750.75;;;;;;;;;;5058829;28;20073;-77
2021/10/30 09:49:13;;;;;;;898.45;725.58;;;;;;;;;;5083375;28;20487;-77
2021/10/30 09:51:39;;;;;;;908.00;757.45;;;;;;;;;;5086467;28;20036;-76
2021/10/30 09:54:06;;;;;;;895.03;718.88;;;;;;;;;;5061363;28;20025;-78
2021/10/30 09:56:51;;;;;;;898.22;724.03;;;;;;;;;;5054938;28;20495;-79
2021/10/30 09:59:18;;;;;;;914.92;769.83;;;;;;;;;;5054694;28;20028;-78
2021/10/30 10:01:45;;;;;;;915.72;777.03;;;;;;;;;;5065458;28;20111;-77
2021/10/30 10:04:12;;;;;;;907.65;753.65;;;;;;;;;;5055762;28;20491;-79
2021/10/30 10:06:40;;;;;;;899.85;734.05;;;;;;;;;;5072541;28;20039;-78
2021/10/30 10:09:06;;;;;;;905.65;752.85;;;;;;;;;;5055549;28;20119;-77
2021/10/30 10:11:32;;;;;;;915.72;777.35;;;;;;;;;;5067227;28;20036;-77
2021/10/30 10:14:00;;;;;;;924.42;801.97;;;;;;;;;;5095702;28;20032;-77
2021/10/30 10:16:26;;;;;;;894.42;723.42;;;;;;;;;;5095739;28;20027;-77
2021/10/30 10:18:54;;;;;;;917.67;787.70;;;;;;;;;;5065399;28;20055;-78
2021/10/30 10:21:26;;;;;;;919.50;790.92;;;;;;;;;;5072399;28;20127;-76
2021/10/30 10:23:52;;;;;;;908.00;762.28;;;;;;;;;;5069174;28;20422;-76
2021/10/30 10:26:18;;;;;;;922.30;801.70;;;;;;;;;;5057550;28;20066;-76
2021/10/30 10:28:44;;;;;;;926.92;805.97;;;;;;;;;;5071869;28;20376;-78
2021/10/30 10:31:22;;;;;;;919.47;796.00;;;;;;;;;;5079233;28;20032;-78
2021/10/30 10:34:06;;;;;;;933.90;824.50;;;;;;;;;;5072918;28;20032;-78
2021/10/30 10:36:33;;;;;;;931.75;816.33;;;;;;;;;;5075509;28;20086;-77
2021/10/30 10:38:59;;;;;;;933.38;820.70;;;;;;;;;;5086772;28;20573;-77
2021/10/30 10:41:37;;;;;;;935.20;828.38;;;;;;;;;;5070269;28;20040;-76
2021/10/30 10:44:07;;;;;;;921.38;793.13;;;;;;;;;;5089240;28;20027;-76
2021/10/30 10:46:54;;;;;;;920.40;794.03;;;;;;;;;;5071327;28;20027;-78
2021/10/30 10:49:31;;;;;;;932.50;821.70;;;;;;;;;;5088610;28;20040;-76
2021/10/30 10:52:37;;;;;;;927.53;808.63;;;;;;;;;;5089331;28;20012;-79
2021/10/30 10:54:59;;;;;;;918.17;787.38;;;;;;;;;;5086781;28;20488;-78
2021/10/30 10:57:31;;;;;;;947.85;843.17;;;;;;;;;;5089211;28;20024;-77
2021/10/30 11:00:08;;;;;;;931.88;819.30;;;;;;;;;;5068971;28;20037;-76
2021/10/30 11:02:37;;;;;;;931.90;821.88;;;;;;;;;;5086898;28;20043;-77
2021/10/30 11:05:10;;;;;;;923.28;801.20;;;;;;;;;;5080245;28;20077;-78
2021/10/30 11:07:39;;;;;;;931.80;819.03;;;;;;;;;;5086564;28;20103;-76
2021/10/30 11:10:09;;;;;;;929.15;816.15;;;;;;;;;;5085623;28;20032;-76
2021/10/30 11:12:36;;;;;;;920.90;790.47;;;;;;;;;;5084349;28;20040;-77
2021/10/30 11:15:04;;;;;;;938.47;833.38;;;;;;;;;;5087140;28;20407;-75
2021/10/30 11:17:43;;;;;;;913.47;778.60;;;;;;;;;;5066075;28;20047;-76
2021/10/30 11:20:10;;;;;;;939.88;833.53;;;;;;;;;;5069104;28;20024;-75
2021/10/30 11:22:36;;;;;;;924.47;809.05;;;;;;;;;;5068615;28;20035;-78
2021/10/30 11:25:02;;;;;;;930.17;824.25;;;;;;;;;;5068999;28;20032;-76
2021/10/30 11:27:28;;;;;;;937.38;832.40;;;;;;;;;;5072066;28;20027;-77
2021/10/30 11:29:55;;;;;;;933.63;825.20;;;;;;;;;;5066207;28;20039;-78
2021/10/30 11:32:22;;;;;;;921.20;792.00;;;;;;;;;;5066012;28;20032;-75
2021/10/30 11:34:52;;;;;;;928.20;811.53;;;;;;;;;;5072205;28;20074;-76
2021/10/30 11:37:36;;;;;;;904.08;752.90;;;;;;;;;;5092012;28;20017;-78
2021/10/30 11:40:03;;;;;;;910.92;763.03;;;;;;;;;;5077954;28;20032;-77
2021/10/30 11:42:29;;;;;;;907.15;757.17;;;;;;;;;;5066319;28;20086;-76
2021/10/30 11:44:56;;;;;;;940.33;835.25;;;;;;;;;;5071274;28;20028;-81
2021/10/30 11:47:31;;;;;;;942.97;837.55;;;;;;;;;;5085731;28;20379;-79
2021/10/30 11:49:59;;;;;;;927.95;813.95;;;;;;;;;;5088339;28;20197;-75
2021/10/30 11:52:25;;;;;;;911.88;777.35;;;;;;;;;;5078357;28;20486;-77
2021/10/30 11:55:02;;;;;;;929.42;822.13;;;;;;;;;;5071048;28;20024;-76
2021/10/30 11:57:28;;;;;;;907.53;762.63;;;;;;;;;;5053055;28;20474;-78
2021/10/30 12:00:00;;;;;;;921.08;795.83;;;;;;;;;;5054820;28;20883;-79
2021/10/30 12:02:26;;;;;;;924.13;803.50;;;;;;;;;;5070038;28;20024;-79
2021/10/30 12:04:52;;;;;;;921.90;799.50;;;;;;;;;;5070312;28;20023;-79
2021/10/30 12:07:18;;;;;;;931.08;824.38;;;;;;;;;;5068821;28;20578;-78
2021/10/30 12:09:45;;;;;;;932.30;827.53;;;;;;;;;;5064353;28;20415;-76
2021/10/30 12:12:12;;;;;;;947.15;843.20;;;;;;;;;;5067284;28;20030;-80
2021/10/30 12:14:40;;;;;;;908.42;776.13;;;;;;;;;;5073714;28;20046;-77
2021/10/30 12:17:18;;;;;;;927.67;824.22;;;;;;;;;;5083508;28;20225;-77
2021/10/30 12:19:46;;;;;;;954.50;850.28;;;;;;;;;;5080942;28;20029;-77
2021/10/30 12:22:19;;;;;;;940.53;836.95;;;;;;;;;;5063055;28;20400;-77
2021/10/30 12:24:45;;;;;;;924.67;818.97;;;;;;;;;;5093498;28;20032;-74
2021/10/30 12:27:12;;;;;;;961.53;857.28;;;;;;;;;;5075026;28;20713;-76
2021/10/30 12:29:42;;;;;;;963.35;858.95;;;;;;;;;;5081425;28;20060;-76
2021/10/30 12:32:08;;;;;;;;;;;;;;;;;;5056662;28;20027;-76
2021/10/30 12:34:35;;;;;;;899.47;739.42;;;;;;;;;;5059361;28;19905;-77
2021/10/30 12:37:02;;;;;;;921.45;812.60;;;;;;;;;;5068284;28;20040;-76
2021/10/30 12:39:28;;;;;;;915.00;798.05;;;;;;;;;;5065720;28;20031;-76
2021/10/30 12:42:11;;;;;;;915.78;807.35;;;;;;;;;;5075696;28;20483;-76
2021/10/30 12:44:38;;;;;;;921.67;816.60;;;;;;;;;;5061934;28;20032;-77
2021/10/30 12:47:10;;;;;;;915.17;802.20;;;;;;;;;;5084699;28;20036;-78
2021/10/30 12:49:38;;;;;;;901.55;768.30;;;;;;;;;;5087988;28;20039;-77
2021/10/30 12:52:08;;;;;;;939.47;835.92;;;;;;;;;;5069703;28;20102;-76
2021/10/30 12:54:37;;;;;;;913.33;803.65;;;;;;;;;;5071024;28;20081;-76
2021/10/30 12:57:03;;;;;;;915.58;806.40;;;;;;;;;;5058469;28;20059;-76
2021/10/30 12:59:37;;;;;;;914.65;801.20;;;;;;;;;;5050511;28;20197;-76
2021/10/30 13:02:03;;;;;;;913.70;801.30;;;;;;;;;;5061781;28;20020;-77
2021/10/30 13:04:29;;;;;;;917.75;801.63;;;;;;;;;;5068801;28;20024;-78
2021/10/30 13:07:00;;;;;;;956.08;851.92;;;;;;;;;;5071868;28;20138;-75
2021/10/30 13:09:28;;;;;;;917.63;807.38;;;;;;;;;;5087965;28;20085;-78
2021/10/30 13:11:54;;;;;;;981.08;875.88;;;;;;;;;;5055630;28;20499;-78
2021/10/30 13:14:20;;;;;;;936.35;833.50;;;;;;;;;;5086623;28;20491;-76
2021/10/30 13:16:46;;;;;;;909.38;800.08;;;;;;;;;;5085020;28;20032;-76
2021/10/30 13:19:12;;;;;;;907.95;796.67;;;;;;;;;;5056897;28;20202;-77
2021/10/30 13:21:39;;;;;;;916.90;808.17;;;;;;;;;;5087407;28;20031;-76
2021/10/30 13:24:05;;;;;;;975.33;870.38;;;;;;;;;;5087287;28;20016;-76
2021/10/30 13:26:32;;;;;;;944.28;841.00;;;;;;;;;;5085666;28;20024;-77
2021/10/30 13:28:58;;;;;;;963.10;858.97;;;;;;;;;;5071812;28;20067;-78
2021/10/30 13:31:25;;;;;;;983.17;878.00;;;;;;;;;;5087816;28;20457;-76
2021/10/30 13:33:51;;;;;;;952.13;848.72;;;;;;;;;;5067533;28;20050;-77
2021/10/30 13:36:25;;;;;;;986.88;881.80;;;;;;;;;;5069566;28;20020;-77
2021/10/30 13:38:52;;;;;;;982.10;877.42;;;;;;;;;;5087497;28;20021;-77
2021/10/30 13:41:19;;;;;;;956.58;853.13;;;;;;;;;;5072883;28;20031;-76
2021/10/30 13:43:47;;;;;;;936.33;833.63;;;;;;;;;;5091862;28;20028;-76
2021/10/30 13:46:13;;;;;;;921.38;818.78;;;;;;;;;;5071566;28;20024;-77
2021/10/30 13:48:39;;;;;;;931.58;829.28;;;;;;;;;;5064820;28;20031;-77
2021/10/30 13:51:05;;;;;;;974.92;870.45;;;;;;;;;;5073291;28;20532;-77
2021/10/30 13:53:32;;;;;;;949.90;846.95;;;;;;;;;;5072955;28;20536;-76
2021/10/30 13:55:58;;;;;;;990.63;885.58;;;;;;;;;;5073859;28;20479;-77